sensor_id;sensor_type;location;lat;lon;timestamp;P1;durP1;ratioP1;P2;durP2;ratioP2
572;SDS011;271;51.114;13.780;2023-05-10T00:00:19;15.53;;;2.50;;
572;SDS011;271;51.114;13.780;2023-05-10T00:03:08;15.13;;;2.20;;
572;SDS011;271;51.114;13.780;2023-05-10T00:05:56;16.50;;;2.30;;
572;SDS011;271;51.114;13.780;2023-05-10T00:08:44;17.40;;;2.70;;
572;SDS011;271;51.114;13.780;2023-05-10T00:11:32;16.23;;;2.67;;
572;SDS011;271;51.114;13.780;2023-05-10T00:14:19;16.67;;;2.40;;
572;SDS011;271;51.114;13.780;2023-05-10T00:17:08;15.20;;;2.63;;
572;SDS011;271;51.114;13.780;2023-05-10T00:19:57;15.07;;;2.20;;
572;SDS011;271;51.114;13.780;2023-05-10T00:22:46;14.40;;;2.10;;
572;SDS011;271;51.114;13.780;2023-05-10T00:25:34;14.40;;;1.93;;
572;SDS011;271;51.114;13.780;2023-05-10T00:28:22;14.80;;;2.00;;
572;SDS011;271;51.114;13.780;2023-05-10T00:31:10;15.97;;;2.20;;
572;SDS011;271;51.114;13.780;2023-05-10T00:34:00;16.13;;;2.07;;
572;SDS011;271;51.114;13.780;2023-05-10T00:36:48;15.60;;;2.40;;
572;SDS011;271;51.114;13.780;2023-05-10T00:39:36;15.47;;;2.63;;
572;SDS011;271;51.114;13.780;2023-05-10T00:42:24;15.23;;;2.20;;
572;SDS011;271;51.114;13.780;2023-05-10T00:45:12;15.23;;;2.07;;
572;SDS011;271;51.114;13.780;2023-05-10T00:48:00;14.90;;;2.00;;
572;SDS011;271;51.114;13.780;2023-05-10T00:50:51;15.20;;;2.57;;
572;SDS011;271;51.114;13.780;2023-05-10T00:53:39;15.53;;;2.30;;
572;SDS011;271;51.114;13.780;2023-05-10T00:56:28;15.10;;;2.13;;
572;SDS011;271;51.114;13.780;2023-05-10T00:59:16;14.80;;;1.93;;
572;SDS011;271;51.114;13.780;2023-05-10T01:02:04;16.83;;;2.30;;
572;SDS011;271;51.114;13.780;2023-05-10T01:04:53;14.90;;;2.10;;
572;SDS011;271;51.114;13.780;2023-05-10T01:07:43;16.40;;;1.83;;
572;SDS011;271;51.114;13.780;2023-05-10T01:10:31;16.50;;;2.27;;
572;SDS011;271;51.114;13.780;2023-05-10T01:13:23;14.60;;;2.10;;
572;SDS011;271;51.114;13.780;2023-05-10T01:16:18;16.13;;;2.50;;
572;SDS011;271;51.114;13.780;2023-05-10T01:19:06;15.40;;;2.00;;
572;SDS011;271;51.114;13.780;2023-05-10T01:22:01;15.83;;;2.00;;
572;SDS011;271;51.114;13.780;2023-05-10T01:28:24;16.27;;;2.43;;
572;SDS011;271;51.114;13.780;2023-05-10T01:31:31;15.50;;;2.10;;
572;SDS011;271;51.114;13.780;2023-05-10T01:34:47;14.60;;;1.90;;
572;SDS011;271;51.114;13.780;2023-05-10T01:37:45;16.27;;;3.00;;
572;SDS011;271;51.114;13.780;2023-05-10T01:40:39;15.23;;;2.07;;
572;SDS011;271;51.114;13.780;2023-05-10T01:43:37;16.83;;;2.50;;
572;SDS011;271;51.114;13.780;2023-05-10T01:46:35;15.30;;;2.27;;
572;SDS011;271;51.114;13.780;2023-05-10T01:49:26;14.90;;;2.00;;
572;SDS011;271;51.114;13.780;2023-05-10T01:52:19;14.50;;;1.80;;
572;SDS011;271;51.114;13.780;2023-05-10T01:55:23;16.10;;;1.93;;
572;SDS011;271;51.114;13.780;2023-05-10T01:58:13;15.23;;;2.00;;
572;SDS011;271;51.114;13.780;2023-05-10T02:01:05;15.27;;;2.00;;
572;SDS011;271;51.114;13.780;2023-05-10T02:03:55;14.37;;;1.90;;
572;SDS011;271;51.114;13.780;2023-05-10T02:06:44;15.33;;;2.50;;
572;SDS011;271;51.114;13.780;2023-05-10T02:09:35;16.50;;;3.07;;
572;SDS011;271;51.114;13.780;2023-05-10T02:12:24;16.30;;;2.50;;
572;SDS011;271;51.114;13.780;2023-05-10T02:15:15;15.13;;;2.00;;
572;SDS011;271;51.114;13.780;2023-05-10T02:18:07;16.20;;;2.07;;
572;SDS011;271;51.114;13.780;2023-05-10T02:20:57;15.07;;;1.90;;
572;SDS011;271;51.114;13.780;2023-05-10T02:23:47;16.30;;;2.40;;
572;SDS011;271;51.114;13.780;2023-05-10T02:26:38;16.77;;;2.30;;
572;SDS011;271;51.114;13.780;2023-05-10T02:29:27;15.70;;;2.30;;
572;SDS011;271;51.114;13.780;2023-05-10T02:32:16;15.60;;;2.27;;
572;SDS011;271;51.114;13.780;2023-05-10T02:35:05;15.93;;;2.10;;
572;SDS011;271;51.114;13.780;2023-05-10T02:37:54;15.23;;;2.00;;
572;SDS011;271;51.114;13.780;2023-05-10T02:40:43;18.90;;;2.53;;
572;SDS011;271;51.114;13.780;2023-05-10T02:43:34;14.80;;;1.90;;
572;SDS011;271;51.114;13.780;2023-05-10T02:46:24;15.67;;;1.90;;
572;SDS011;271;51.114;13.780;2023-05-10T02:49:12;15.97;;;2.23;;
572;SDS011;271;51.114;13.780;2023-05-10T02:52:00;18.27;;;2.20;;
572;SDS011;271;51.114;13.780;2023-05-10T02:54:52;15.40;;;2.23;;
572;SDS011;271;51.114;13.780;2023-05-10T02:57:58;15.07;;;2.10;;
572;SDS011;271;51.114;13.780;2023-05-10T03:00:48;16.03;;;2.60;;
572;SDS011;271;51.114;13.780;2023-05-10T03:03:36;16.50;;;2.60;;
572;SDS011;271;51.114;13.780;2023-05-10T03:06:24;15.73;;;2.30;;
572;SDS011;271;51.114;13.780;2023-05-10T03:09:12;15.63;;;2.20;;
572;SDS011;271;51.114;13.780;2023-05-10T03:12:03;14.97;;;2.13;;
572;SDS011;271;51.114;13.780;2023-05-10T03:15:00;15.80;;;2.20;;
572;SDS011;271;51.114;13.780;2023-05-10T03:17:56;15.40;;;2.37;;
572;SDS011;271;51.114;13.780;2023-05-10T03:20:49;14.90;;;2.13;;
572;SDS011;271;51.114;13.780;2023-05-10T03:23:43;15.33;;;1.90;;
572;SDS011;271;51.114;13.780;2023-05-10T03:26:34;15.40;;;2.03;;
572;SDS011;271;51.114;13.780;2023-05-10T03:29:23;15.60;;;2.70;;
572;SDS011;271;51.114;13.780;2023-05-10T03:32:13;14.87;;;2.07;;
572;SDS011;271;51.114;13.780;2023-05-10T03:35:02;14.60;;;1.93;;
572;SDS011;271;51.114;13.780;2023-05-10T03:37:53;16.70;;;2.90;;
572;SDS011;271;51.114;13.780;2023-05-10T03:40:41;15.00;;;1.90;;
572;SDS011;271;51.114;13.780;2023-05-10T03:43:29;15.63;;;2.33;;
572;SDS011;271;51.114;13.780;2023-05-10T03:46:17;14.90;;;2.03;;
572;SDS011;271;51.114;13.780;2023-05-10T03:49:04;15.40;;;2.17;;
572;SDS011;271;51.114;13.780;2023-05-10T03:51:53;15.60;;;2.10;;
572;SDS011;271;51.114;13.780;2023-05-10T03:54:41;17.40;;;2.60;;
572;SDS011;271;51.114;13.780;2023-05-10T03:57:29;15.37;;;2.50;;
572;SDS011;271;51.114;13.780;2023-05-10T04:00:16;16.27;;;2.33;;
572;SDS011;271;51.114;13.780;2023-05-10T04:03:04;15.47;;;2.60;;
572;SDS011;271;51.114;13.780;2023-05-10T04:05:58;15.17;;;2.30;;
572;SDS011;271;51.114;13.780;2023-05-10T04:08:47;14.83;;;2.03;;
572;SDS011;271;51.114;13.780;2023-05-10T04:11:35;14.90;;;2.00;;
572;SDS011;271;51.114;13.780;2023-05-10T04:14:23;17.93;;;2.20;;
572;SDS011;271;51.114;13.780;2023-05-10T04:17:10;15.40;;;2.23;;
572;SDS011;271;51.114;13.780;2023-05-10T04:19:58;14.87;;;1.87;;
572;SDS011;271;51.114;13.780;2023-05-10T04:22:46;17.50;;;2.70;;
572;SDS011;271;51.114;13.780;2023-05-10T04:25:35;15.10;;;2.00;;
572;SDS011;271;51.114;13.780;2023-05-10T04:28:23;19.67;;;2.33;;
572;SDS011;271;51.114;13.780;2023-05-10T04:31:10;14.90;;;1.80;;
572;SDS011;271;51.114;13.780;2023-05-10T04:33:58;14.80;;;1.83;;
572;SDS011;271;51.114;13.780;2023-05-10T04:36:46;15.13;;;1.90;;
572;SDS011;271;51.114;13.780;2023-05-10T04:39:33;15.13;;;2.10;;
572;SDS011;271;51.114;13.780;2023-05-10T04:42:22;15.57;;;2.10;;
572;SDS011;271;51.114;13.780;2023-05-10T04:45:10;14.73;;;1.77;;
572;SDS011;271;51.114;13.780;2023-05-10T04:48:00;15.93;;;3.03;;
572;SDS011;271;51.114;13.780;2023-05-10T04:50:48;14.97;;;2.00;;
572;SDS011;271;51.114;13.780;2023-05-10T04:53:35;15.37;;;2.10;;
572;SDS011;271;51.114;13.780;2023-05-10T04:56:23;14.70;;;1.87;;
572;SDS011;271;51.114;13.780;2023-05-10T04:59:12;15.03;;;1.60;;
572;SDS011;271;51.114;13.780;2023-05-10T05:02:00;14.97;;;1.90;;
572;SDS011;271;51.114;13.780;2023-05-10T05:04:47;15.70;;;2.20;;
572;SDS011;271;51.114;13.780;2023-05-10T05:07:35;15.07;;;1.80;;
572;SDS011;271;51.114;13.780;2023-05-10T05:10:23;14.90;;;2.07;;
572;SDS011;271;51.114;13.780;2023-05-10T05:13:12;16.20;;;1.97;;
572;SDS011;271;51.114;13.780;2023-05-10T05:16:02;15.30;;;1.77;;
572;SDS011;271;51.114;13.780;2023-05-10T05:18:50;14.83;;;1.90;;
572;SDS011;271;51.114;13.780;2023-05-10T05:21:38;14.90;;;1.90;;
572;SDS011;271;51.114;13.780;2023-05-10T05:24:27;16.10;;;2.43;;
572;SDS011;271;51.114;13.780;2023-05-10T05:27:14;15.70;;;2.20;;
572;SDS011;271;51.114;13.780;2023-05-10T05:30:02;15.43;;;1.90;;
572;SDS011;271;51.114;13.780;2023-05-10T05:32:52;15.70;;;2.10;;
572;SDS011;271;51.114;13.780;2023-05-10T05:35:40;14.70;;;1.93;;
572;SDS011;271;51.114;13.780;2023-05-10T05:38:28;15.10;;;2.57;;
572;SDS011;271;51.114;13.780;2023-05-10T05:41:16;14.70;;;2.50;;
572;SDS011;271;51.114;13.780;2023-05-10T05:44:04;14.80;;;2.40;;
572;SDS011;271;51.114;13.780;2023-05-10T05:46:51;15.30;;;2.30;;
572;SDS011;271;51.114;13.780;2023-05-10T05:49:41;15.70;;;2.47;;
572;SDS011;271;51.114;13.780;2023-05-10T05:52:31;15.13;;;1.63;;
572;SDS011;271;51.114;13.780;2023-05-10T05:55:19;15.07;;;2.53;;
572;SDS011;271;51.114;13.780;2023-05-10T05:58:07;14.70;;;2.30;;
572;SDS011;271;51.114;13.780;2023-05-10T06:00:55;15.83;;;2.13;;
572;SDS011;271;51.114;13.780;2023-05-10T06:03:43;14.70;;;2.33;;
572;SDS011;271;51.114;13.780;2023-05-10T06:06:32;16.87;;;2.50;;
572;SDS011;271;51.114;13.780;2023-05-10T06:09:19;16.07;;;1.90;;
572;SDS011;271;51.114;13.780;2023-05-10T06:12:09;14.23;;;2.20;;
572;SDS011;271;51.114;13.780;2023-05-10T06:14:57;14.77;;;2.10;;
572;SDS011;271;51.114;13.780;2023-05-10T06:17:45;16.10;;;2.40;;
572;SDS011;271;51.114;13.780;2023-05-10T06:20:34;14.53;;;2.00;;
572;SDS011;271;51.114;13.780;2023-05-10T06:23:24;15.10;;;2.30;;
572;SDS011;271;51.114;13.780;2023-05-10T06:26:12;16.17;;;2.60;;
572;SDS011;271;51.114;13.780;2023-05-10T06:29:00;14.00;;;1.73;;
572;SDS011;271;51.114;13.780;2023-05-10T06:31:48;18.03;;;1.70;;
572;SDS011;271;51.114;13.780;2023-05-10T06:34:36;15.37;;;2.10;;
572;SDS011;271;51.114;13.780;2023-05-10T06:37:23;14.80;;;2.30;;
572;SDS011;271;51.114;13.780;2023-05-10T06:40:13;15.17;;;1.90;;
572;SDS011;271;51.114;13.780;2023-05-10T06:43:01;15.00;;;2.70;;
572;SDS011;271;51.114;13.780;2023-05-10T06:45:49;14.77;;;2.27;;
572;SDS011;271;51.114;13.780;2023-05-10T06:48:36;14.57;;;2.30;;
572;SDS011;271;51.114;13.780;2023-05-10T06:51:24;14.13;;;1.80;;
572;SDS011;271;51.114;13.780;2023-05-10T06:54:12;14.70;;;2.07;;
572;SDS011;271;51.114;13.780;2023-05-10T06:57:01;15.17;;;2.27;;
572;SDS011;271;51.114;13.780;2023-05-10T06:59:49;17.50;;;2.30;;
572;SDS011;271;51.114;13.780;2023-05-10T07:02:37;15.20;;;2.50;;
572;SDS011;271;51.114;13.780;2023-05-10T07:05:25;14.60;;;2.73;;
572;SDS011;271;51.114;13.780;2023-05-10T07:08:13;14.23;;;1.90;;
572;SDS011;271;51.114;13.780;2023-05-10T07:11:01;15.27;;;2.10;;
572;SDS011;271;51.114;13.780;2023-05-10T07:13:51;15.67;;;2.33;;
572;SDS011;271;51.114;13.780;2023-05-10T07:16:39;15.30;;;2.43;;
572;SDS011;271;51.114;13.780;2023-05-10T07:19:27;14.37;;;1.90;;
572;SDS011;271;51.114;13.780;2023-05-10T07:22:15;14.57;;;2.73;;
572;SDS011;271;51.114;13.780;2023-05-10T07:25:03;15.37;;;2.87;;
572;SDS011;271;51.114;13.780;2023-05-10T07:27:51;14.90;;;2.53;;
572;SDS011;271;51.114;13.780;2023-05-10T07:30:41;15.10;;;2.63;;
572;SDS011;271;51.114;13.780;2023-05-10T07:33:29;14.77;;;2.10;;
572;SDS011;271;51.114;13.780;2023-05-10T07:36:16;16.60;;;2.73;;
572;SDS011;271;51.114;13.780;2023-05-10T07:39:04;14.87;;;2.40;;
572;SDS011;271;51.114;13.780;2023-05-10T07:41:52;14.37;;;2.40;;
572;SDS011;271;51.114;13.780;2023-05-10T07:44:40;14.97;;;2.70;;
572;SDS011;271;51.114;13.780;2023-05-10T07:47:30;16.50;;;3.07;;
572;SDS011;271;51.114;13.780;2023-05-10T07:50:18;16.87;;;2.60;;
572;SDS011;271;51.114;13.780;2023-05-10T07:53:06;15.20;;;2.40;;
572;SDS011;271;51.114;13.780;2023-05-10T07:55:56;14.70;;;2.20;;
572;SDS011;271;51.114;13.780;2023-05-10T07:58:45;17.03;;;2.57;;
572;SDS011;271;51.114;13.780;2023-05-10T08:01:33;15.00;;;2.10;;
572;SDS011;271;51.114;13.780;2023-05-10T08:04:22;15.87;;;2.80;;
572;SDS011;271;51.114;13.780;2023-05-10T08:07:10;14.47;;;2.23;;
572;SDS011;271;51.114;13.780;2023-05-10T08:09:58;14.60;;;2.40;;
572;SDS011;271;51.114;13.780;2023-05-10T08:12:45;15.90;;;2.20;;
572;SDS011;271;51.114;13.780;2023-05-10T08:15:33;15.60;;;3.00;;
572;SDS011;271;51.114;13.780;2023-05-10T08:18:21;15.40;;;2.93;;
572;SDS011;271;51.114;13.780;2023-05-10T08:21:10;17.50;;;2.70;;
572;SDS011;271;51.114;13.780;2023-05-10T08:23:58;14.97;;;2.60;;
572;SDS011;271;51.114;13.780;2023-05-10T08:26:46;14.57;;;2.57;;
572;SDS011;271;51.114;13.780;2023-05-10T08:29:33;15.17;;;2.60;;
572;SDS011;271;51.114;13.780;2023-05-10T08:32:21;15.57;;;2.87;;
572;SDS011;271;51.114;13.780;2023-05-10T08:35:09;16.40;;;2.60;;
572;SDS011;271;51.114;13.780;2023-05-10T08:37:58;14.90;;;3.03;;
572;SDS011;271;51.114;13.780;2023-05-10T08:40:46;16.10;;;2.90;;
572;SDS011;271;51.114;13.780;2023-05-10T08:43:36;17.20;;;3.57;;
572;SDS011;271;51.114;13.780;2023-05-10T08:46:27;16.10;;;3.00;;
572;SDS011;271;51.114;13.780;2023-05-10T08:49:17;15.30;;;2.70;;
572;SDS011;271;51.114;13.780;2023-05-10T08:52:07;17.80;;;3.10;;
572;SDS011;271;51.114;13.780;2023-05-10T08:54:58;15.10;;;3.03;;
572;SDS011;271;51.114;13.780;2023-05-10T08:57:46;15.33;;;2.60;;
572;SDS011;271;51.114;13.780;2023-05-10T09:00:34;14.83;;;2.40;;
572;SDS011;271;51.114;13.780;2023-05-10T09:03:22;16.73;;;3.10;;
572;SDS011;271;51.114;13.780;2023-05-10T09:06:10;14.90;;;2.90;;
572;SDS011;271;51.114;13.780;2023-05-10T09:09:00;14.30;;;2.27;;
572;SDS011;271;51.114;13.780;2023-05-10T09:11:50;14.77;;;2.53;;
572;SDS011;271;51.114;13.780;2023-05-10T09:14:39;16.10;;;3.20;;
572;SDS011;271;51.114;13.780;2023-05-10T09:17:27;15.60;;;2.80;;
572;SDS011;271;51.114;13.780;2023-05-10T09:20:16;17.10;;;3.10;;
572;SDS011;271;51.114;13.780;2023-05-10T09:23:04;15.30;;;3.00;;
572;SDS011;271;51.114;13.780;2023-05-10T09:26:01;15.03;;;3.00;;
572;SDS011;271;51.114;13.780;2023-05-10T09:28:52;15.67;;;3.10;;
572;SDS011;271;51.114;13.780;2023-05-10T09:31:45;17.43;;;4.00;;
572;SDS011;271;51.114;13.780;2023-05-10T09:34:37;16.63;;;3.10;;
572;SDS011;271;51.114;13.780;2023-05-10T09:37:29;15.30;;;3.40;;
572;SDS011;271;51.114;13.780;2023-05-10T09:40:17;15.67;;;3.00;;
572;SDS011;271;51.114;13.780;2023-05-10T09:43:06;15.90;;;3.03;;
572;SDS011;271;51.114;13.780;2023-05-10T09:45:56;15.50;;;3.20;;
572;SDS011;271;51.114;13.780;2023-05-10T09:48:44;14.80;;;2.80;;
572;SDS011;271;51.114;13.780;2023-05-10T09:51:34;16.40;;;3.00;;
572;SDS011;271;51.114;13.780;2023-05-10T09:54:22;15.43;;;3.10;;
572;SDS011;271;51.114;13.780;2023-05-10T09:57:13;15.30;;;3.17;;
572;SDS011;271;51.114;13.780;2023-05-10T10:00:07;15.07;;;3.10;;
572;SDS011;271;51.114;13.780;2023-05-10T10:02:58;15.90;;;3.30;;
572;SDS011;271;51.114;13.780;2023-05-10T10:05:47;15.50;;;3.33;;
572;SDS011;271;51.114;13.780;2023-05-10T10:08:36;15.50;;;3.00;;
572;SDS011;271;51.114;13.780;2023-05-10T10:11:24;14.97;;;2.50;;
572;SDS011;271;51.114;13.780;2023-05-10T10:14:12;15.90;;;3.50;;
572;SDS011;271;51.114;13.780;2023-05-10T10:17:00;20.03;;;3.73;;
572;SDS011;271;51.114;13.780;2023-05-10T10:19:49;15.00;;;3.10;;
572;SDS011;271;51.114;13.780;2023-05-10T10:22:40;15.13;;;2.90;;
572;SDS011;271;51.114;13.780;2023-05-10T10:25:29;17.20;;;3.00;;
572;SDS011;271;51.114;13.780;2023-05-10T10:28:21;15.57;;;3.60;;
572;SDS011;271;51.114;13.780;2023-05-10T10:31:15;14.83;;;3.03;;
572;SDS011;271;51.114;13.780;2023-05-10T10:34:11;15.20;;;3.03;;
572;SDS011;271;51.114;13.780;2023-05-10T10:37:13;15.87;;;2.90;;
572;SDS011;271;51.114;13.780;2023-05-10T10:40:01;16.40;;;3.50;;
572;SDS011;271;51.114;13.780;2023-05-10T10:43:22;14.67;;;3.00;;
572;SDS011;271;51.114;13.780;2023-05-10T10:46:12;15.50;;;2.97;;
572;SDS011;271;51.114;13.780;2023-05-10T10:49:11;16.80;;;3.23;;
572;SDS011;271;51.114;13.780;2023-05-10T10:55:14;15.20;;;2.80;;
572;SDS011;271;51.114;13.780;2023-05-10T10:58:04;16.13;;;3.20;;
572;SDS011;271;51.114;13.780;2023-05-10T11:00:58;19.10;;;3.43;;
572;SDS011;271;51.114;13.780;2023-05-10T11:04:18;16.90;;;4.10;;
572;SDS011;271;51.114;13.780;2023-05-10T11:10:24;14.97;;;3.30;;
572;SDS011;271;51.114;13.780;2023-05-10T11:13:12;16.10;;;3.93;;
572;SDS011;271;51.114;13.780;2023-05-10T11:16:12;14.87;;;3.10;;
572;SDS011;271;51.114;13.780;2023-05-10T11:19:06;16.03;;;2.90;;
572;SDS011;271;51.114;13.780;2023-05-10T11:25:04;16.07;;;3.30;;
572;SDS011;271;51.114;13.780;2023-05-10T11:27:53;15.47;;;3.00;;
572;SDS011;271;51.114;13.780;2023-05-10T11:30:43;15.43;;;3.20;;
572;SDS011;271;51.114;13.780;2023-05-10T11:33:31;16.10;;;3.40;;
572;SDS011;271;51.114;13.780;2023-05-10T11:36:32;16.20;;;3.70;;
572;SDS011;271;51.114;13.780;2023-05-10T11:39:22;14.97;;;2.90;;
572;SDS011;271;51.114;13.780;2023-05-10T11:42:15;15.73;;;3.17;;
572;SDS011;271;51.114;13.780;2023-05-10T11:45:03;15.40;;;3.10;;
572;SDS011;271;51.114;13.780;2023-05-10T11:48:05;17.60;;;3.50;;
572;SDS011;271;51.114;13.780;2023-05-10T11:50:56;14.77;;;2.77;;
572;SDS011;271;51.114;13.780;2023-05-10T11:53:44;15.40;;;2.80;;
572;SDS011;271;51.114;13.780;2023-05-10T11:56:35;16.90;;;3.47;;
572;SDS011;271;51.114;13.780;2023-05-10T11:59:25;15.30;;;3.10;;
572;SDS011;271;51.114;13.780;2023-05-10T12:02:14;15.20;;;3.33;;
572;SDS011;271;51.114;13.780;2023-05-10T12:05:01;15.10;;;3.00;;
572;SDS011;271;51.114;13.780;2023-05-10T12:07:50;17.57;;;3.37;;
572;SDS011;271;51.114;13.780;2023-05-10T12:10:38;15.50;;;3.30;;
572;SDS011;271;51.114;13.780;2023-05-10T12:13:29;15.67;;;2.93;;
572;SDS011;271;51.114;13.780;2023-05-10T12:16:19;15.67;;;3.03;;
572;SDS011;271;51.114;13.780;2023-05-10T12:19:08;14.90;;;2.53;;
572;SDS011;271;51.114;13.780;2023-05-10T12:21:55;16.17;;;3.57;;
572;SDS011;271;51.114;13.780;2023-05-10T12:24:46;15.70;;;3.27;;
572;SDS011;271;51.114;13.780;2023-05-10T12:27:34;16.90;;;3.60;;
572;SDS011;271;51.114;13.780;2023-05-10T12:30:22;15.07;;;3.40;;
572;SDS011;271;51.114;13.780;2023-05-10T12:33:12;15.30;;;3.23;;
572;SDS011;271;51.114;13.780;2023-05-10T12:36:02;15.50;;;3.23;;
572;SDS011;271;51.114;13.780;2023-05-10T12:38:50;16.20;;;3.20;;
572;SDS011;271;51.114;13.780;2023-05-10T12:41:38;15.77;;;3.17;;
572;SDS011;271;51.114;13.780;2023-05-10T12:44:26;17.10;;;3.80;;
572;SDS011;271;51.114;13.780;2023-05-10T12:47:17;15.30;;;3.07;;
572;SDS011;271;51.114;13.780;2023-05-10T12:50:06;15.90;;;3.90;;
572;SDS011;271;51.114;13.780;2023-05-10T12:52:57;15.77;;;3.70;;
572;SDS011;271;51.114;13.780;2023-05-10T12:55:45;17.13;;;3.90;;
572;SDS011;271;51.114;13.780;2023-05-10T12:58:32;15.43;;;3.33;;
572;SDS011;271;51.114;13.780;2023-05-10T13:01:21;15.50;;;3.40;;
572;SDS011;271;51.114;13.780;2023-05-10T13:04:09;17.50;;;3.27;;
572;SDS011;271;51.114;13.780;2023-05-10T13:06:58;16.70;;;3.10;;
572;SDS011;271;51.114;13.780;2023-05-10T13:09:52;15.47;;;3.20;;
572;SDS011;271;51.114;13.780;2023-05-10T13:12:39;15.40;;;3.83;;
572;SDS011;271;51.114;13.780;2023-05-10T13:15:27;21.10;;;4.57;;
572;SDS011;271;51.114;13.780;2023-05-10T13:18:15;15.23;;;3.20;;
572;SDS011;271;51.114;13.780;2023-05-10T13:21:03;16.37;;;3.27;;
572;SDS011;271;51.114;13.780;2023-05-10T13:23:52;15.60;;;3.40;;
572;SDS011;271;51.114;13.780;2023-05-10T13:26:41;16.07;;;3.60;;
572;SDS011;271;51.114;13.780;2023-05-10T13:29:29;15.50;;;3.03;;
572;SDS011;271;51.114;13.780;2023-05-10T13:32:20;16.10;;;3.13;;
572;SDS011;271;51.114;13.780;2023-05-10T13:35:08;15.50;;;3.17;;
572;SDS011;271;51.114;13.780;2023-05-10T13:37:59;17.73;;;3.37;;
572;SDS011;271;51.114;13.780;2023-05-10T13:40:48;15.90;;;4.23;;
572;SDS011;271;51.114;13.780;2023-05-10T13:43:38;16.47;;;3.47;;
572;SDS011;271;51.114;13.780;2023-05-10T13:46:26;15.30;;;3.17;;
572;SDS011;271;51.114;13.780;2023-05-10T13:49:13;16.00;;;3.63;;
572;SDS011;271;51.114;13.780;2023-05-10T13:52:01;15.90;;;3.30;;
572;SDS011;271;51.114;13.780;2023-05-10T13:54:52;15.33;;;3.03;;
572;SDS011;271;51.114;13.780;2023-05-10T13:57:43;16.47;;;3.50;;
572;SDS011;271;51.114;13.780;2023-05-10T14:00:30;15.70;;;3.17;;
572;SDS011;271;51.114;13.780;2023-05-10T14:03:18;16.23;;;3.90;;
572;SDS011;271;51.114;13.780;2023-05-10T14:06:08;16.57;;;3.10;;
572;SDS011;271;51.114;13.780;2023-05-10T14:08:56;16.73;;;3.03;;
572;SDS011;271;51.114;13.780;2023-05-10T14:11:47;16.20;;;3.33;;
572;SDS011;271;51.114;13.780;2023-05-10T14:14:36;15.73;;;2.80;;
572;SDS011;271;51.114;13.780;2023-05-10T14:17:24;15.93;;;3.30;;
572;SDS011;271;51.114;13.780;2023-05-10T14:20:13;19.57;;;3.40;;
572;SDS011;271;51.114;13.780;2023-05-10T14:23:00;15.73;;;3.30;;
572;SDS011;271;51.114;13.780;2023-05-10T14:25:48;16.80;;;4.10;;
572;SDS011;271;51.114;13.780;2023-05-10T14:28:39;15.77;;;3.80;;
572;SDS011;271;51.114;13.780;2023-05-10T14:31:28;18.10;;;3.40;;
572;SDS011;271;51.114;13.780;2023-05-10T14:34:16;17.60;;;3.53;;
572;SDS011;271;51.114;13.780;2023-05-10T14:37:04;15.37;;;2.97;;
572;SDS011;271;51.114;13.780;2023-05-10T14:39:55;15.17;;;2.90;;
572;SDS011;271;51.114;13.780;2023-05-10T14:42:43;16.50;;;3.07;;
572;SDS011;271;51.114;13.780;2023-05-10T14:45:34;16.10;;;3.30;;
572;SDS011;271;51.114;13.780;2023-05-10T14:48:23;16.17;;;3.37;;
572;SDS011;271;51.114;13.780;2023-05-10T14:51:11;15.30;;;3.00;;
572;SDS011;271;51.114;13.780;2023-05-10T14:53:59;15.67;;;4.07;;
572;SDS011;271;51.114;13.780;2023-05-10T14:56:50;15.73;;;3.00;;
572;SDS011;271;51.114;13.780;2023-05-10T14:59:38;16.00;;;3.10;;
572;SDS011;271;51.114;13.780;2023-05-10T15:02:25;15.00;;;2.83;;
572;SDS011;271;51.114;13.780;2023-05-10T15:05:15;17.00;;;3.03;;
572;SDS011;271;51.114;13.780;2023-05-10T15:08:06;16.00;;;3.00;;
572;SDS011;271;51.114;13.780;2023-05-10T15:10:55;14.30;;;2.40;;
572;SDS011;271;51.114;13.780;2023-05-10T15:13:42;16.03;;;2.80;;
572;SDS011;271;51.114;13.780;2023-05-10T15:16:30;15.93;;;3.43;;
572;SDS011;271;51.114;13.780;2023-05-10T15:19:19;15.20;;;3.07;;
572;SDS011;271;51.114;13.780;2023-05-10T15:22:08;16.60;;;3.40;;
572;SDS011;271;51.114;13.780;2023-05-10T15:24:56;16.40;;;2.97;;
572;SDS011;271;51.114;13.780;2023-05-10T15:27:44;16.43;;;3.33;;
572;SDS011;271;51.114;13.780;2023-05-10T15:30:35;16.73;;;2.97;;
572;SDS011;271;51.114;13.780;2023-05-10T15:33:23;22.23;;;3.63;;
572;SDS011;271;51.114;13.780;2023-05-10T15:36:15;15.37;;;3.00;;
572;SDS011;271;51.114;13.780;2023-05-10T15:39:05;15.90;;;3.07;;
572;SDS011;271;51.114;13.780;2023-05-10T15:41:52;16.37;;;2.80;;
572;SDS011;271;51.114;13.780;2023-05-10T15:44:40;16.27;;;3.10;;
572;SDS011;271;51.114;13.780;2023-05-10T15:47:30;15.83;;;3.00;;
572;SDS011;271;51.114;13.780;2023-05-10T15:50:18;16.30;;;3.30;;
572;SDS011;271;51.114;13.780;2023-05-10T15:53:09;17.40;;;3.23;;
572;SDS011;271;51.114;13.780;2023-05-10T15:55:58;15.40;;;2.70;;
572;SDS011;271;51.114;13.780;2023-05-10T15:58:46;18.33;;;2.83;;
572;SDS011;271;51.114;13.780;2023-05-10T16:01:33;16.17;;;2.90;;
572;SDS011;271;51.114;13.780;2023-05-10T16:04:24;15.67;;;2.90;;
572;SDS011;271;51.114;13.780;2023-05-10T16:07:11;17.00;;;2.73;;
572;SDS011;271;51.114;13.780;2023-05-10T16:10:03;15.73;;;2.90;;
572;SDS011;271;51.114;13.780;2023-05-10T16:12:53;15.23;;;2.37;;
572;SDS011;271;51.114;13.780;2023-05-10T16:15:41;15.70;;;2.83;;
572;SDS011;271;51.114;13.780;2023-05-10T16:18:29;16.10;;;2.50;;
572;SDS011;271;51.114;13.780;2023-05-10T16:21:17;15.30;;;2.70;;
572;SDS011;271;51.114;13.780;2023-05-10T16:24:05;15.27;;;2.60;;
572;SDS011;271;51.114;13.780;2023-05-10T16:26:55;15.23;;;2.57;;
572;SDS011;271;51.114;13.780;2023-05-10T16:29:45;16.20;;;2.73;;
572;SDS011;271;51.114;13.780;2023-05-10T16:32:33;16.57;;;3.10;;
572;SDS011;271;51.114;13.780;2023-05-10T16:35:21;16.13;;;3.40;;
572;SDS011;271;51.114;13.780;2023-05-10T16:38:09;16.00;;;3.03;;
572;SDS011;271;51.114;13.780;2023-05-10T16:40:57;15.37;;;2.80;;
572;SDS011;271;51.114;13.780;2023-05-10T16:43:48;16.30;;;2.87;;
572;SDS011;271;51.114;13.780;2023-05-10T16:46:38;15.30;;;2.67;;
572;SDS011;271;51.114;13.780;2023-05-10T16:49:29;17.10;;;2.80;;
572;SDS011;271;51.114;13.780;2023-05-10T16:52:16;16.57;;;2.80;;
572;SDS011;271;51.114;13.780;2023-05-10T16:55:04;17.83;;;2.80;;
572;SDS011;271;51.114;13.780;2023-05-10T16:57:52;15.47;;;2.90;;
572;SDS011;271;51.114;13.780;2023-05-10T17:00:44;15.57;;;3.10;;
572;SDS011;271;51.114;13.780;2023-05-10T17:03:33;16.57;;;3.03;;
572;SDS011;271;51.114;13.780;2023-05-10T17:06:21;15.33;;;2.60;;
572;SDS011;271;51.114;13.780;2023-05-10T17:09:09;15.50;;;2.60;;
572;SDS011;271;51.114;13.780;2023-05-10T17:11:59;15.93;;;3.50;;
572;SDS011;271;51.114;13.780;2023-05-10T17:14:48;16.67;;;3.10;;
572;SDS011;271;51.114;13.780;2023-05-10T17:17:36;15.83;;;2.77;;
572;SDS011;271;51.114;13.780;2023-05-10T17:20:26;16.83;;;2.57;;
572;SDS011;271;51.114;13.780;2023-05-10T17:23:16;15.57;;;2.73;;
572;SDS011;271;51.114;13.780;2023-05-10T17:26:05;16.40;;;3.10;;
572;SDS011;271;51.114;13.780;2023-05-10T17:28:53;16.17;;;3.23;;
572;SDS011;271;51.114;13.780;2023-05-10T17:31:41;16.87;;;3.50;;
572;SDS011;271;51.114;13.780;2023-05-10T17:34:29;16.80;;;3.47;;
572;SDS011;271;51.114;13.780;2023-05-10T17:37:20;15.67;;;3.10;;
572;SDS011;271;51.114;13.780;2023-05-10T17:40:08;16.13;;;3.70;;
572;SDS011;271;51.114;13.780;2023-05-10T17:42:59;15.77;;;2.87;;
572;SDS011;271;51.114;13.780;2023-05-10T17:45:51;16.60;;;3.30;;